Thunder radar more information blitzortung!


Radar de pluja more information rain snow radar


Visita la nostra xarxa de llocs de meteo:

Template documentation
and downloads

And another site



No particular awareness of the weather is required.    There are no Weather-warnings

Pagina Historial Weather Underground text

Diari Resum May 6, 2016 Unitats:  Mètric    Imperial   Tant
« Previous Dia
SegĂźent Dia »
Diari Setmana Mensual Anual Personalitzada
  Maxima: Minima: Media:
Temperatura: 19.5 °C 12.2 °C 15.8 °C
Punt de rosada: 10.4 °C 7.2 °C 8.8 °C
Humitat: 79 % 48 % 64 %
Wind Speed: 18.5 km/h 0.0 km/h 7.8 km/h
RĂ fegues de vent: 25.7 km/h - -
Vent:- - East
Pression baro: 1016.8 hPa 1011.7 hPa -
Precipitacions: 0.0 mm    
Historical Graphs
 
 
Dades de taula per May 6, 2016
Temps Temperatura Punt de rosada Pression baro Vent Wind Speed RĂ fegues de vent Humitat Rainfall Rate (Hourly)
00:00 12.5 °C 7.6 °C 1015.8 hPa NE 3.2 km/h 4.8 km/h 72 % 0.0 mm
00:02 13.2 °C 7.6 °C 1015.8 hPa ENE 5.6 km/h 5.6 km/h 69 % 0.0 mm
00:10 12.5 °C 7.6 °C 1016.8 hPa ENE 4.8 km/h 4.8 km/h 72 % 0.0 mm
00:20 12.5 °C 7.4 °C 1016.8 hPa ENE 1.6 km/h 4.8 km/h 71 % 0.0 mm
00:30 12.6 °C 7.5 °C 1015.8 hPa NE 3.2 km/h 4.8 km/h 71 % 0.0 mm
00:40 12.7 °C 7.4 °C 1015.8 hPa NE 3.2 km/h 4.8 km/h 70 % 0.0 mm
00:50 12.8 °C 7.4 °C 1015.8 hPa Calm   4.8 km/h 70 % 0.0 mm
01:00 12.9 °C 7.3 °C 1015.8 hPa NE 3.2 km/h 4.8 km/h 69 % 0.0 mm
01:10 13.0 °C 7.4 °C 1015.8 hPa NE 1.6 km/h 3.2 km/h 69 % 0.0 mm
01:30 12.7 °C 7.4 °C 1014.8 hPa Calm   3.2 km/h 70 % 0.0 mm
01:40 12.6 °C 7.3 °C 1015.8 hPa SW 1.6 km/h 1.6 km/h 70 % 0.0 mm
01:50 12.4 °C 7.5 °C 1015.8 hPa Calm   1.6 km/h 72 % 0.0 mm
02:00 12.4 °C 7.5 °C 1015.8 hPa Calm   3.2 km/h 72 % 0.0 mm
02:10 12.3 °C 7.6 °C 1015.8 hPa Calm   3.2 km/h 73 % 0.0 mm
02:30 12.2 °C 7.9 °C 1015.8 hPa Calm   1.6 km/h 75 % 0.0 mm
02:40 12.2 °C 7.9 °C 1015.8 hPa WSW 1.6 km/h 1.6 km/h 75 % 0.0 mm
02:50 12.3 °C 7.8 °C 1015.8 hPa Calm   1.6 km/h 74 % 0.0 mm
03:00 12.5 °C 8.4 °C 1015.8 hPa West 1.6 km/h 3.2 km/h 76 % 0.0 mm
03:10 12.6 °C 8.7 °C 1014.8 hPa Calm   1.6 km/h 77 % 0.0 mm
03:20 12.6 °C 8.7 °C 1014.8 hPa NNE 1.6 km/h 1.6 km/h 77 % 0.0 mm
03:30 12.4 °C 8.5 °C 1015.8 hPa WSW 3.2 km/h 4.8 km/h 77 % 0.0 mm
03:40 12.3 °C 8.6 °C 1014.8 hPa WSW 1.6 km/h 4.8 km/h 78 % 0.0 mm
03:50 12.3 °C 8.6 °C 1014.8 hPa WSW 1.6 km/h 1.6 km/h 78 % 0.0 mm
04:00 12.4 °C 8.8 °C 1014.8 hPa Calm     79 % 0.0 mm
04:10 12.5 °C 8.9 °C 1015.8 hPa Calm   1.6 km/h 79 % 0.0 mm
04:20 12.7 °C 9.2 °C 1015.8 hPa WNW 1.6 km/h 4.8 km/h 79 % 0.0 mm
04:30 12.9 °C 9.3 °C 1015.8 hPa Calm   4.8 km/h 79 % 0.0 mm
04:40 12.9 °C 9.3 °C 1015.8 hPa NW 1.6 km/h 1.6 km/h 79 % 0.0 mm
04:50 13.0 °C 9.4 °C 1015.8 hPa Calm   3.2 km/h 79 % 0.0 mm
05:00 13.0 °C 9.4 °C 1015.8 hPa NE 3.2 km/h 4.8 km/h 79 % 0.0 mm
05:10 13.1 °C 9.3 °C 1014.8 hPa NNE 3.2 km/h 6.4 km/h 78 % 0.0 mm
05:20 13.2 °C 9.4 °C 1014.8 hPa NE 4.8 km/h 4.8 km/h 78 % 0.0 mm
05:30 13.3 °C 9.7 °C 1015.8 hPa NE 3.2 km/h 6.4 km/h 79 % 0.0 mm
05:40 13.5 °C 9.7 °C 1015.8 hPa NNE 3.2 km/h 6.4 km/h 78 % 0.0 mm
05:50 13.6 °C 9.8 °C 1015.8 hPa NNE 1.6 km/h 6.4 km/h 78 % 0.0 mm
06:00 13.7 °C 9.7 °C 1015.8 hPa NE 3.2 km/h 6.4 km/h 77 % 0.0 mm
06:10 13.9 °C 9.9 °C 1015.8 hPa NNE 4.8 km/h 9.7 km/h 77 % 0.0 mm
06:20 14.1 °C 9.9 °C 1015.8 hPa NNE 8.0 km/h 8.0 km/h 76 % 0.0 mm
06:30 14.2 °C 9.8 °C 1015.8 hPa NNE 1.6 km/h 8.0 km/h 75 % 0.0 mm
06:40 14.4 °C 9.8 °C 1015.8 hPa NE 4.8 km/h 4.8 km/h 74 % 0.0 mm
06:50 14.7 °C 10.1 °C 1015.8 hPa NE 1.6 km/h 1.6 km/h 74 % 0.0 mm
11:43 14.4 °C 9.8 °C 1015.8 hPa NNE 4.7 km/h 4.7 km/h 74 % 0.0 mm
11:48 14.6 °C 10.0 °C 1015.8 hPa NNE 3.9 km/h 3.9 km/h 74 % 0.0 mm
11:59 14.8 °C 9.8 °C 1015.8 hPa ENE 5.6 km/h 5.6 km/h 72 % 0.0 mm
12:05 14.8 °C 9.8 °C 1015.8 hPa ENE 9.3 km/h 9.3 km/h 72 % 0.0 mm
12:10 14.9 °C 9.7 °C 1015.8 hPa NE 6.1 km/h 6.1 km/h 71 % 0.0 mm
12:15 14.9 °C 9.7 °C 1015.8 hPa NNE 5.6 km/h 5.6 km/h 71 % 0.0 mm
12:20 15.0 °C 9.8 °C 1015.8 hPa NNE 11.1 km/h 11.1 km/h 71 % 0.0 mm
12:25 15.0 °C 9.8 °C 1015.8 hPa NE 5.6 km/h 6.1 km/h 71 % 0.0 mm
12:30 15.1 °C 9.7 °C 1015.8 hPa ENE 9.3 km/h 9.3 km/h 70 % 0.0 mm
12:35 15.2 °C 9.8 °C 1015.8 hPa NNE 11.1 km/h 11.1 km/h 70 % 0.0 mm
12:40 15.3 °C 9.8 °C 1014.8 hPa NE 7.4 km/h 7.4 km/h 70 % 0.0 mm
12:45 15.5 °C 10.1 °C 1014.8 hPa NNE 3.7 km/h 3.7 km/h 70 % 0.0 mm
12:55 15.9 °C 10.2 °C 1015.8 hPa NE 3.7 km/h 3.7 km/h 69 % 0.0 mm
13:00 16.1 °C 10.4 °C 1015.8 hPa NNE 5.6 km/h 5.6 km/h 69 % 0.0 mm
13:05 16.1 °C 10.2 °C 1015.8 hPa NW 9.3 km/h 9.3 km/h 68 % 0.0 mm
13:10 16.1 °C 10.2 °C 1015.8 hPa NE 9.3 km/h 9.3 km/h 68 % 0.0 mm
13:15 16.2 °C 10.1 °C 1015.8 hPa NNE 5.6 km/h 5.6 km/h 67 % 0.0 mm
13:20 16.3 °C 9.9 °C 1015.8 hPa North 5.6 km/h 6.9 km/h 66 % 0.0 mm
13:25 16.5 °C 10.1 °C 1014.8 hPa North 13.0 km/h 13.0 km/h 66 % 0.0 mm
13:30 16.5 °C 9.9 °C 1014.8 hPa ENE 9.3 km/h 9.3 km/h 65 % 0.0 mm
13:35 16.6 °C 9.8 °C 1014.8 hPa NNE 11.4 km/h 11.4 km/h 64 % 0.0 mm
13:45 16.9 °C 9.8 °C 1014.8 hPa ENE 7.4 km/h 7.4 km/h 63 % 0.0 mm
13:50 17.1 °C 9.8 °C 1014.8 hPa NE 9.3 km/h 9.3 km/h 62 % 0.0 mm
13:55 17.4 °C 10.1 °C 1014.8 hPa NE 3.2 km/h 9.7 km/h 62 % 0.0 mm
14:00 17.4 °C 9.8 °C 1014.8 hPa West 9.3 km/h 9.3 km/h 61 % 0.0 mm
14:05 17.5 °C 9.7 °C 1014.8 hPa NNE 7.4 km/h 7.4 km/h 60 % 0.0 mm
14:10 17.5 °C 9.7 °C 1014.1 hPa NE 3.2 km/h 9.7 km/h 60 % 0.0 mm
14:15 17.8 °C 9.9 °C 1013.8 hPa NNE 3.2 km/h 4.8 km/h 60 % 0.0 mm
14:20 17.7 °C 9.8 °C 1013.8 hPa NE 4.8 km/h 8.0 km/h 60 % 0.0 mm
14:25 18.0 °C 10.1 °C 1013.8 hPa NE 1.6 km/h 8.0 km/h 60 % 0.0 mm
14:30 18.2 °C 10.1 °C 1013.8 hPa NNE 3.2 km/h 6.4 km/h 59 % 0.0 mm
14:35 18.3 °C 9.9 °C 1013.8 hPa NE 4.8 km/h 9.7 km/h 58 % 0.0 mm
14:40 18.3 °C 9.9 °C 1013.8 hPa NE 4.8 km/h 8.0 km/h 58 % 0.0 mm
14:45 18.5 °C 9.8 °C 1013.8 hPa ENE 8.0 km/h 9.7 km/h 57 % 0.0 mm
14:50 18.7 °C 9.7 °C 1013.8 hPa East 8.0 km/h 14.5 km/h 56 % 0.0 mm
14:55 18.6 °C 9.1 °C 1013.8 hPa East 14.8 km/h 14.8 km/h 54 % 0.0 mm
15:00 18.9 °C 9.4 °C 1013.8 hPa East 8.0 km/h 16.1 km/h 54 % 0.0 mm
15:05 19.0 °C 8.9 °C 1013.8 hPa East 11.3 km/h 22.5 km/h 52 % 0.0 mm
15:10 18.8 °C 9.0 °C 1013.8 hPa East 11.3 km/h 17.7 km/h 53 % 0.0 mm
15:15 18.8 °C 8.9 °C 1013.8 hPa ENE 11.3 km/h 12.9 km/h 53 % 0.0 mm
15:20 18.6 °C 8.6 °C 1013.8 hPa ENE 9.7 km/h 14.5 km/h 52 % 0.0 mm
15:25 18.8 °C 8.7 °C 1013.8 hPa East 11.3 km/h 20.9 km/h 52 % 0.0 mm
15:30 18.8 °C 8.4 °C 1013.8 hPa East 12.9 km/h 19.3 km/h 51 % 0.0 mm
15:35 18.8 °C 8.7 °C 1013.8 hPa East 9.7 km/h 16.1 km/h 52 % 0.0 mm
15:40 18.8 °C 8.7 °C 1013.8 hPa ENE 16.7 km/h 16.7 km/h 52 % 0.0 mm
15:45 18.7 °C 8.6 °C 1013.8 hPa NNE 18.5 km/h 18.5 km/h 52 % 0.0 mm
15:50 18.7 °C 8.6 °C 1013.8 hPa ENE 17.5 km/h 17.5 km/h 52 % 0.0 mm
15:55 19.0 °C 8.6 °C 1013.8 hPa SSE 13.0 km/h 13.0 km/h 51 % 0.0 mm
16:00 19.2 °C 8.5 °C 1013.8 hPa East 11.3 km/h 16.1 km/h 50 % 0.0 mm
16:10 19.4 °C 9.0 °C 1013.8 hPa NE 14.8 km/h 14.8 km/h 51 % 0.0 mm
16:15 19.3 °C 8.6 °C 1013.8 hPa ESE 13.0 km/h 13.0 km/h 50 % 0.0 mm
16:20 19.4 °C 8.7 °C 1013.8 hPa ENE 13.0 km/h 13.0 km/h 50 % 0.0 mm
16:25 19.5 °C 8.8 °C 1012.8 hPa ENE 16.7 km/h 16.7 km/h 50 % 0.0 mm
16:30 19.4 °C 8.4 °C 1012.8 hPa NNE 13.0 km/h 13.0 km/h 49 % 0.0 mm
16:35 19.5 °C 8.5 °C 1012.8 hPa ENE 13.0 km/h 13.0 km/h 49 % 0.0 mm
16:40 19.4 °C 8.4 °C 1012.8 hPa SE 16.7 km/h 16.7 km/h 49 % 0.0 mm
16:45 19.1 °C 7.8 °C 1012.8 hPa East 11.3 km/h 14.5 km/h 48 % 0.0 mm
16:50 18.9 °C 8.2 °C 1012.8 hPa East 4.8 km/h 11.3 km/h 50 % 0.0 mm
16:55 18.9 °C 8.2 °C 1012.8 hPa ESE 13.0 km/h 13.0 km/h 50 % 0.0 mm
17:00 18.8 °C 8.2 °C 1012.8 hPa East 8.0 km/h 16.1 km/h 50 % 0.0 mm
17:05 18.7 °C 7.8 °C 1012.8 hPa East 8.0 km/h 14.5 km/h 49 % 0.0 mm
17:10 18.5 °C 7.6 °C 1012.8 hPa ESE 11.3 km/h 16.1 km/h 49 % 0.0 mm
17:15 18.6 °C 7.9 °C 1012.8 hPa ESE 8.0 km/h 14.5 km/h 50 % 0.0 mm
17:20 18.5 °C 7.9 °C 1012.8 hPa ESE 11.3 km/h 22.5 km/h 50 % 0.0 mm
17:25 18.3 °C 7.7 °C 1012.8 hPa ESE 11.3 km/h 25.7 km/h 50 % 0.0 mm
17:30 18.3 °C 7.7 °C 1012.8 hPa East 4.8 km/h 17.7 km/h 50 % 0.0 mm
17:35 18.2 °C 7.6 °C 1012.8 hPa East 11.3 km/h 17.7 km/h 50 % 0.0 mm
17:45 17.9 °C 7.3 °C 1012.8 hPa ESE 9.7 km/h 14.5 km/h 50 % 0.0 mm
17:50 18.0 °C 7.7 °C 1012.8 hPa ESE 4.8 km/h 11.3 km/h 51 % 0.0 mm
17:55 18.1 °C 7.8 °C 1013.8 hPa SSE 4.8 km/h 16.1 km/h 51 % 0.0 mm
18:00 18.1 °C 7.8 °C 1013.8 hPa ESE 3.2 km/h 9.7 km/h 51 % 0.0 mm
18:05 18.0 °C 7.7 °C 1013.8 hPa ENE 14.8 km/h 14.8 km/h 51 % 0.0 mm
18:10 17.8 °C 7.6 °C 1013.1 hPa ESE 9.7 km/h 12.9 km/h 51 % 0.0 mm
18:15 17.8 °C 7.5 °C 1012.8 hPa East 9.7 km/h 12.9 km/h 51 % 0.0 mm
18:20 17.7 °C 7.4 °C 1012.8 hPa SSE 16.7 km/h 16.7 km/h 51 % 0.0 mm
18:25 17.6 °C 7.3 °C 1013.8 hPa ESE 11.3 km/h 19.3 km/h 51 % 0.0 mm
18:30 17.4 °C 7.2 °C 1013.8 hPa ESE 11.3 km/h 19.3 km/h 51 % 0.0 mm
18:35 17.4 °C 7.4 °C 1013.8 hPa East 4.8 km/h 14.5 km/h 52 % 0.0 mm
18:40 17.4 °C 7.4 °C 1013.1 hPa East 9.7 km/h 17.7 km/h 52 % 0.0 mm
18:45 17.3 °C 7.3 °C 1012.8 hPa East 12.9 km/h 16.1 km/h 52 % 0.0 mm
18:50 17.2 °C 7.3 °C 1012.8 hPa ENE 9.7 km/h 14.5 km/h 52 % 0.0 mm
18:55 17.2 °C 7.3 °C 1012.8 hPa NNE 12.2 km/h 12.2 km/h 52 % 0.0 mm
19:00 17.2 °C 7.6 °C 1012.8 hPa ENE 14.8 km/h 14.8 km/h 53 % 0.0 mm
19:05 17.1 °C 7.7 °C 1012.8 hPa ENE 12.6 km/h 12.6 km/h 54 % 0.0 mm
19:10 17.0 °C 7.3 °C 1012.8 hPa ENE 13.0 km/h 13.0 km/h 53 % 0.0 mm
19:15 16.9 °C 7.5 °C 1012.8 hPa East 11.1 km/h 11.1 km/h 54 % 0.0 mm
19:20 16.8 °C 7.4 °C 1012.8 hPa ENE 11.1 km/h 11.1 km/h 54 % 0.0 mm
19:25 16.8 °C 7.4 °C 1011.7 hPa ESE 10.0 km/h 10.0 km/h 54 % 0.0 mm
19:30 16.7 °C 7.6 °C 1011.7 hPa ESE 13.7 km/h 13.7 km/h 55 % 0.0 mm
19:35 16.7 °C 7.6 °C 1011.7 hPa ENE 14.8 km/h 14.8 km/h 55 % 0.0 mm
19:40 16.6 °C 7.5 °C 1012.8 hPa ENE 11.1 km/h 11.1 km/h 55 % 0.0 mm
19:45 16.6 °C 7.2 °C 1012.8 hPa ESE 12.6 km/h 12.6 km/h 54 % 0.0 mm
19:50 16.6 °C 7.2 °C 1012.8 hPa ESE 9.3 km/h 9.3 km/h 54 % 0.0 mm
19:55 16.5 °C 7.7 °C 1012.8 hPa ESE 15.8 km/h 15.8 km/h 56 % 0.0 mm
20:00 16.3 °C 8.0 °C 1012.8 hPa ESE 13.0 km/h 13.0 km/h 58 % 0.0 mm
20:05 16.3 °C 7.8 °C 1012.8 hPa ESE 13.0 km/h 13.0 km/h 57 % 0.0 mm
20:10 16.2 °C 8.2 °C 1012.8 hPa East 13.0 km/h 13.0 km/h 59 % 0.0 mm
20:15 16.2 °C 8.2 °C 1012.8 hPa ESE 13.0 km/h 13.7 km/h 59 % 0.0 mm
20:20 16.1 °C 8.3 °C 1012.8 hPa ENE 9.3 km/h 9.3 km/h 60 % 0.0 mm
20:25 16.1 °C 8.6 °C 1011.7 hPa ESE 8.7 km/h 8.7 km/h 61 % 0.0 mm
20:30 16.0 °C 8.7 °C 1011.7 hPa ENE 14.8 km/h 14.8 km/h 62 % 0.0 mm
20:35 15.9 °C 8.8 °C 1011.7 hPa ENE 14.8 km/h 14.8 km/h 63 % 0.0 mm
20:40 15.8 °C 8.8 °C 1011.7 hPa ESE 14.0 km/h 14.0 km/h 63 % 0.0 mm
20:45 15.7 °C 8.9 °C 1011.7 hPa ESE 13.0 km/h 13.0 km/h 64 % 0.0 mm
20:50 15.5 °C 8.9 °C 1011.7 hPa NNE 16.7 km/h 16.7 km/h 65 % 0.0 mm
20:55 15.4 °C 8.6 °C 1011.7 hPa ENE 11.1 km/h 11.1 km/h 64 % 0.0 mm
21:00 15.4 °C 8.8 °C 1011.7 hPa ENE 12.6 km/h 12.6 km/h 65 % 0.0 mm
21:05 15.3 °C 8.8 °C 1011.7 hPa East 9.3 km/h 9.5 km/h 65 % 0.0 mm
21:10 15.3 °C 8.8 °C 1012.8 hPa East 7.4 km/h 7.4 km/h 65 % 0.0 mm
21:15 15.2 °C 8.9 °C 1012.8 hPa ENE 13.0 km/h 13.0 km/h 66 % 0.0 mm
21:20 15.2 °C 8.9 °C 1012.8 hPa East 13.0 km/h 13.0 km/h 66 % 0.0 mm
21:25 15.2 °C 8.9 °C 1012.8 hPa ENE 9.3 km/h 9.3 km/h 66 % 0.0 mm
21:30 15.1 °C 9.0 °C 1012.8 hPa ESE 7.4 km/h 7.4 km/h 67 % 0.0 mm
21:35 15.1 °C 9.0 °C 1012.8 hPa East 7.9 km/h 7.9 km/h 67 % 0.0 mm
21:40 15.1 °C 9.0 °C 1012.8 hPa ESE 9.7 km/h 9.7 km/h 67 % 0.0 mm
21:45 15.0 °C 8.9 °C 1012.8 hPa ENE 8.0 km/h 9.7 km/h 67 % 0.0 mm
21:50 15.0 °C 8.9 °C 1012.8 hPa NE 4.8 km/h 9.7 km/h 67 % 0.0 mm
21:55 15.0 °C 8.9 °C 1013.8 hPa ENE 3.2 km/h 8.0 km/h 67 % 0.0 mm
22:00 15.0 °C 9.1 °C 1013.8 hPa East 3.2 km/h 8.0 km/h 68 % 0.0 mm
22:05 14.9 °C 9.3 °C 1013.8 hPa East 3.2 km/h 9.7 km/h 69 % 0.0 mm
22:10 14.9 °C 9.3 °C 1013.8 hPa ENE 3.2 km/h 8.0 km/h 69 % 0.0 mm
22:15 14.8 °C 9.2 °C 1013.8 hPa ENE 4.8 km/h 8.0 km/h 69 % 0.0 mm
22:20 14.7 °C 9.5 °C 1013.8 hPa NE 7.9 km/h 7.9 km/h 71 % 0.0 mm
22:25 14.7 °C 9.7 °C 1013.8 hPa NNE 6.1 km/h 6.1 km/h 72 % 0.0 mm
22:30 14.6 °C 9.8 °C 1013.8 hPa ENE 7.4 km/h 7.4 km/h 73 % 0.0 mm
22:35 14.6 °C 9.8 °C 1013.8 hPa NE 4.8 km/h 6.4 km/h 73 % 0.0 mm
22:40 14.5 °C 9.9 °C 1013.8 hPa ENE 8.0 km/h 11.3 km/h 74 % 0.0 mm
22:45 14.5 °C 10.1 °C 1013.8 hPa NNE 8.0 km/h 11.3 km/h 75 % 0.0 mm
22:50 14.5 °C 10.1 °C 1013.8 hPa NNE 9.7 km/h 16.1 km/h 75 % 0.0 mm
22:55 14.5 °C 10.1 °C 1013.1 hPa NE 9.7 km/h 16.1 km/h 75 % 0.0 mm
23:00 14.4 °C 10.0 °C 1012.8 hPa ENE 9.7 km/h 16.1 km/h 75 % 0.0 mm
23:05 14.4 °C 10.2 °C 1012.8 hPa East 9.7 km/h 12.9 km/h 76 % 0.0 mm
23:10 14.4 °C 10.2 °C 1013.8 hPa ENE 13.0 km/h 13.0 km/h 76 % 0.0 mm
23:15 14.3 °C 10.1 °C 1013.8 hPa ENE 7.9 km/h 8.7 km/h 76 % 0.0 mm
23:20 14.3 °C 10.1 °C 1013.8 hPa ENE 7.9 km/h 8.7 km/h 76 % 0.0 mm
23:25 14.3 °C 9.9 °C 1012.8 hPa ENE 7.9 km/h 8.7 km/h 75 % 0.0 mm
23:30 14.3 °C 10.1 °C 1012.8 hPa ENE 7.9 km/h 8.7 km/h 76 % 0.0 mm
23:35 14.2 °C 10.0 °C 1012.8 hPa ENE 7.9 km/h 8.7 km/h 76 % 0.0 mm
23:40 14.1 °C 9.9 °C 1011.7 hPa ENE 8.0 km/h 12.9 km/h 76 % 0.0 mm
23:45 14.2 °C 10.0 °C 1012.8 hPa ENE 7.9 km/h 8.7 km/h 76 % 0.0 mm
23:50 14.2 °C 10.0 °C 1012.8 hPa ENE 7.9 km/h 8.7 km/h 76 % 0.0 mm
23:55 14.2 °C 10.0 °C 1012.8 hPa NE 7.4 km/h 7.4 km/h 76 % 0.0 mm
Meteo Sesrovires
Elogis d' Weather Underground - 3.5 mb

Guio original per  Jim McMurry - jmcmurry@mwt.net Adaptat per a la plantilla per  Wim van der Kuil - Leuven-Template.eu

Trobareu la nostra informacio del temps tambe a:

Weather Underground

AWEKAS